sensor_id;sensor_type;location;lat;lon;timestamp;pressure;altitude;pressure_sealevel;temperature;humidity
65784;BME280;52532;53.358;-1.488;2022-09-09T00:01:46;99373.17;;;20.14;63.19
65784;BME280;52532;53.358;-1.488;2022-09-09T00:04:58;99372.98;;;20.29;62.69
65784;BME280;52532;53.358;-1.488;2022-09-09T00:08:03;99376.76;;;20.98;60.98
65784;BME280;52532;53.358;-1.488;2022-09-09T00:11:09;99381.35;;;19.38;64.25
65784;BME280;52532;53.358;-1.488;2022-09-09T00:14:20;99382.52;;;19.43;63.60
65784;BME280;52532;53.358;-1.488;2022-09-09T00:17:34;99379.50;;;21.30;59.85
65784;BME280;52532;53.358;-1.488;2022-09-09T00:20:44;99382.71;;;20.93;59.94
65784;BME280;52532;53.358;-1.488;2022-09-09T00:23:51;99382.20;;;21.97;58.97
65784;BME280;52532;53.358;-1.488;2022-09-09T00:27:00;99383.41;;;19.92;62.27
65784;BME280;52532;53.358;-1.488;2022-09-09T00:30:15;99382.94;;;19.78;63.59
65784;BME280;52532;53.358;-1.488;2022-09-09T00:33:24;99383.22;;;19.49;65.67
65784;BME280;52532;53.358;-1.488;2022-09-09T00:36:27;99391.98;;;18.63;68.77
65784;BME280;52532;53.358;-1.488;2022-09-09T00:39:34;99384.36;;;19.85;67.13
65784;BME280;52532;53.358;-1.488;2022-09-09T00:42:42;99383.10;;;16.03;74.39
65784;BME280;52532;53.358;-1.488;2022-09-09T00:46:00;99382.81;;;18.51;69.14
65784;BME280;52532;53.358;-1.488;2022-09-09T00:49:19;99383.90;;;19.55;65.89
65784;BME280;52532;53.358;-1.488;2022-09-09T00:52:33;99381.60;;;19.27;66.02
65784;BME280;52532;53.358;-1.488;2022-09-09T00:55:43;99380.30;;;18.51;66.85
65784;BME280;52532;53.358;-1.488;2022-09-09T00:58:53;99377.92;;;18.37;67.53
65784;BME280;52532;53.358;-1.488;2022-09-09T01:02:04;99380.30;;;19.87;65.03
65784;BME280;52532;53.358;-1.488;2022-09-09T01:05:17;99379.00;;;18.64;66.31
65784;BME280;52532;53.358;-1.488;2022-09-09T01:08:36;99383.11;;;19.43;65.32
65784;BME280;52532;53.358;-1.488;2022-09-09T01:11:51;99379.64;;;19.61;64.24
65784;BME280;52532;53.358;-1.488;2022-09-09T01:15:03;99380.59;;;20.06;63.04
65784;BME280;52532;53.358;-1.488;2022-09-09T01:18:13;99381.27;;;18.99;66.56
65784;BME280;52532;53.358;-1.488;2022-09-09T01:21:25;99382.96;;;19.45;67.45
65784;BME280;52532;53.358;-1.488;2022-09-09T01:24:38;99383.82;;;18.84;67.44
65784;BME280;52532;53.358;-1.488;2022-09-09T01:27:45;99383.07;;;19.11;67.26
65784;BME280;52532;53.358;-1.488;2022-09-09T01:31:01;99387.67;;;18.40;69.48
65784;BME280;52532;53.358;-1.488;2022-09-09T01:34:10;99385.76;;;17.15;72.47
65784;BME280;52532;53.358;-1.488;2022-09-09T01:37:14;99380.74;;;19.36;67.33
65784;BME280;52532;53.358;-1.488;2022-09-09T01:40:17;99383.36;;;20.93;63.54
65784;BME280;52532;53.358;-1.488;2022-09-09T01:43:20;99382.54;;;19.60;64.76
65784;BME280;52532;53.358;-1.488;2022-09-09T01:46:24;99382.47;;;18.53;65.99
65784;BME280;52532;53.358;-1.488;2022-09-09T01:49:27;99380.42;;;19.45;64.58
65784;BME280;52532;53.358;-1.488;2022-09-09T01:52:30;99385.25;;;17.40;69.98
65784;BME280;52532;53.358;-1.488;2022-09-09T01:55:39;99386.15;;;18.35;69.06
65784;BME280;52532;53.358;-1.488;2022-09-09T01:58:51;99380.20;;;19.99;65.20
65784;BME280;52532;53.358;-1.488;2022-09-09T02:02:09;99376.14;;;20.33;64.55
65784;BME280;52532;53.358;-1.488;2022-09-09T02:05:20;99372.39;;;19.66;64.80
65784;BME280;52532;53.358;-1.488;2022-09-09T02:08:32;99367.22;;;20.75;62.00
65784;BME280;52532;53.358;-1.488;2022-09-09T02:11:37;99364.92;;;20.76;60.81
65784;BME280;52532;53.358;-1.488;2022-09-09T02:14:42;99363.44;;;21.25;61.79
65784;BME280;52532;53.358;-1.488;2022-09-09T02:17:49;99365.20;;;20.10;63.41
65784;BME280;52532;53.358;-1.488;2022-09-09T02:20:54;99365.25;;;19.83;62.58
65784;BME280;52532;53.358;-1.488;2022-09-09T02:24:02;99366.45;;;20.11;62.39
65784;BME280;52532;53.358;-1.488;2022-09-09T02:27:08;99370.33;;;19.00;64.53
65784;BME280;52532;53.358;-1.488;2022-09-09T02:30:12;99371.91;;;19.18;64.07
65784;BME280;52532;53.358;-1.488;2022-09-09T02:33:15;99376.19;;;19.78;63.27
65784;BME280;52532;53.358;-1.488;2022-09-09T02:36:19;99375.49;;;18.70;63.54
65784;BME280;52532;53.358;-1.488;2022-09-09T02:39:23;99376.71;;;19.72;62.57
65784;BME280;52532;53.358;-1.488;2022-09-09T02:42:26;99377.47;;;20.43;60.80
65784;BME280;52532;53.358;-1.488;2022-09-09T02:45:39;99375.69;;;20.58;60.30
65784;BME280;52532;53.358;-1.488;2022-09-09T02:48:49;99377.01;;;20.24;60.73
65784;BME280;52532;53.358;-1.488;2022-09-09T02:52:00;99380.14;;;18.77;62.89
65784;BME280;52532;53.358;-1.488;2022-09-09T02:55:08;99377.73;;;20.04;63.88
65784;BME280;52532;53.358;-1.488;2022-09-09T02:58:16;99377.90;;;19.26;64.96
65784;BME280;52532;53.358;-1.488;2022-09-09T03:01:19;99378.85;;;19.39;64.38
65784;BME280;52532;53.358;-1.488;2022-09-09T03:04:22;99380.91;;;20.00;63.85
65784;BME280;52532;53.358;-1.488;2022-09-09T03:07:27;99377.12;;;19.77;64.49
65784;BME280;52532;53.358;-1.488;2022-09-09T03:10:29;99376.43;;;20.28;64.05
65784;BME280;52532;53.358;-1.488;2022-09-09T03:13:32;99373.25;;;19.18;65.00
65784;BME280;52532;53.358;-1.488;2022-09-09T03:16:35;99374.32;;;19.90;64.17
65784;BME280;52532;53.358;-1.488;2022-09-09T03:19:38;99371.68;;;19.75;64.35
65784;BME280;52532;53.358;-1.488;2022-09-09T03:22:41;99369.05;;;20.02;64.36
65784;BME280;52532;53.358;-1.488;2022-09-09T03:25:47;99369.33;;;20.83;61.42
65784;BME280;52532;53.358;-1.488;2022-09-09T03:28:50;99373.94;;;20.25;63.41
65784;BME280;52532;53.358;-1.488;2022-09-09T03:31:54;99373.53;;;18.96;64.50
65784;BME280;52532;53.358;-1.488;2022-09-09T03:34:57;99376.79;;;20.19;62.02
65784;BME280;52532;53.358;-1.488;2022-09-09T03:37:59;99377.22;;;18.69;65.05
65784;BME280;52532;53.358;-1.488;2022-09-09T03:41:03;99380.42;;;18.88;64.61
65784;BME280;52532;53.358;-1.488;2022-09-09T03:44:08;99384.91;;;19.23;64.36
65784;BME280;52532;53.358;-1.488;2022-09-09T03:47:11;99388.35;;;19.53;67.04
65784;BME280;52532;53.358;-1.488;2022-09-09T03:50:13;99387.98;;;17.64;69.95
65784;BME280;52532;53.358;-1.488;2022-09-09T03:53:21;99382.23;;;19.46;66.38
65784;BME280;52532;53.358;-1.488;2022-09-09T03:56:24;99384.17;;;18.99;67.43
65784;BME280;52532;53.358;-1.488;2022-09-09T03:59:27;99380.61;;;19.11;66.92
65784;BME280;52532;53.358;-1.488;2022-09-09T04:02:30;99384.79;;;19.89;64.78
65784;BME280;52532;53.358;-1.488;2022-09-09T04:05:32;99387.48;;;19.61;64.49
65784;BME280;52532;53.358;-1.488;2022-09-09T04:08:36;99391.98;;;18.21;67.80
65784;BME280;52532;53.358;-1.488;2022-09-09T04:11:40;99388.70;;;20.54;62.26
65784;BME280;52532;53.358;-1.488;2022-09-09T04:14:43;99388.98;;;20.39;62.71
65784;BME280;52532;53.358;-1.488;2022-09-09T04:17:46;99392.30;;;20.06;63.34
65784;BME280;52532;53.358;-1.488;2022-09-09T04:20:50;99394.04;;;19.97;63.67
65784;BME280;52532;53.358;-1.488;2022-09-09T04:23:53;99391.25;;;18.76;66.84
65784;BME280;52532;53.358;-1.488;2022-09-09T04:26:55;99390.09;;;18.69;65.87
65784;BME280;52532;53.358;-1.488;2022-09-09T04:29:58;99393.18;;;18.78;64.51
65784;BME280;52532;53.358;-1.488;2022-09-09T04:33:01;99401.68;;;17.07;68.42
65784;BME280;52532;53.358;-1.488;2022-09-09T04:36:04;99397.38;;;19.73;63.45
65784;BME280;52532;53.358;-1.488;2022-09-09T04:39:07;99399.92;;;18.02;66.37
65784;BME280;52532;53.358;-1.488;2022-09-09T04:42:10;99402.77;;;20.22;62.24
65784;BME280;52532;53.358;-1.488;2022-09-09T04:45:14;99402.39;;;20.29;59.99
65784;BME280;52532;53.358;-1.488;2022-09-09T04:48:17;99403.24;;;18.58;64.21
65784;BME280;52532;53.358;-1.488;2022-09-09T04:51:20;99406.98;;;19.57;63.13
65784;BME280;52532;53.358;-1.488;2022-09-09T04:54:23;99408.10;;;19.28;63.39
65784;BME280;52532;53.358;-1.488;2022-09-09T04:57:26;99408.78;;;20.43;60.97
65784;BME280;52532;53.358;-1.488;2022-09-09T05:00:28;99410.95;;;20.52;60.48
65784;BME280;52532;53.358;-1.488;2022-09-09T05:03:31;99413.11;;;21.35;57.37
65784;BME280;52532;53.358;-1.488;2022-09-09T05:06:34;99416.92;;;20.52;58.74
65784;BME280;52532;53.358;-1.488;2022-09-09T05:09:38;99422.35;;;20.89;59.42
65784;BME280;52532;53.358;-1.488;2022-09-09T05:12:41;99423.60;;;20.87;58.75
65784;BME280;52532;53.358;-1.488;2022-09-09T05:15:51;99430.02;;;17.87;68.37
65784;BME280;52532;53.358;-1.488;2022-09-09T05:18:54;99426.87;;;19.37;63.58
65784;BME280;52532;53.358;-1.488;2022-09-09T05:21:57;99427.04;;;19.49;62.79
65784;BME280;52532;53.358;-1.488;2022-09-09T05:25:00;99430.50;;;19.51;61.94
65784;BME280;52532;53.358;-1.488;2022-09-09T05:28:03;99430.06;;;20.39;60.87
65784;BME280;52532;53.358;-1.488;2022-09-09T05:31:09;99430.18;;;19.50;62.66
65784;BME280;52532;53.358;-1.488;2022-09-09T05:34:13;99431.97;;;19.85;62.73
65784;BME280;52532;53.358;-1.488;2022-09-09T05:37:16;99435.17;;;19.55;62.99
65784;BME280;52532;53.358;-1.488;2022-09-09T05:40:19;99436.99;;;20.16;61.33
65784;BME280;52532;53.358;-1.488;2022-09-09T05:43:24;99438.42;;;19.15;62.76
65784;BME280;52532;53.358;-1.488;2022-09-09T05:46:27;99439.31;;;18.54;63.75
65784;BME280;52532;53.358;-1.488;2022-09-09T05:49:30;99441.56;;;21.44;57.60
65784;BME280;52532;53.358;-1.488;2022-09-09T05:52:33;99444.96;;;21.52;57.91
65784;BME280;52532;53.358;-1.488;2022-09-09T05:55:36;99445.43;;;20.96;57.76
65784;BME280;52532;53.358;-1.488;2022-09-09T05:58:40;99448.22;;;21.16;58.19
65784;BME280;52532;53.358;-1.488;2022-09-09T06:01:45;99449.85;;;20.47;60.27
65784;BME280;52532;53.358;-1.488;2022-09-09T06:04:49;99451.68;;;17.22;67.59
65784;BME280;52532;53.358;-1.488;2022-09-09T06:07:53;99452.21;;;20.27;62.31
65784;BME280;52532;53.358;-1.488;2022-09-09T06:11:01;99452.80;;;16.99;70.67
65784;BME280;52532;53.358;-1.488;2022-09-09T06:14:06;99457.73;;;18.70;66.42
65784;BME280;52532;53.358;-1.488;2022-09-09T06:17:09;99464.41;;;18.21;66.35
65784;BME280;52532;53.358;-1.488;2022-09-09T06:20:11;99462.69;;;19.68;62.45
65784;BME280;52532;53.358;-1.488;2022-09-09T06:23:15;99463.84;;;19.78;63.99
65784;BME280;52532;53.358;-1.488;2022-09-09T06:26:20;99468.57;;;20.29;61.85
65784;BME280;52532;53.358;-1.488;2022-09-09T06:29:24;99469.81;;;19.56;63.51
65784;BME280;52532;53.358;-1.488;2022-09-09T06:32:28;99474.13;;;19.44;61.66
65784;BME280;52532;53.358;-1.488;2022-09-09T06:35:31;99478.63;;;21.47;58.77
65784;BME280;52532;53.358;-1.488;2022-09-09T06:38:34;99482.87;;;20.69;59.43
65784;BME280;52532;53.358;-1.488;2022-09-09T06:41:38;99484.16;;;20.01;61.06
65784;BME280;52532;53.358;-1.488;2022-09-09T06:44:40;99486.49;;;19.26;63.03
65784;BME280;52532;53.358;-1.488;2022-09-09T06:47:43;99485.04;;;19.96;62.89
65784;BME280;52532;53.358;-1.488;2022-09-09T06:50:47;99483.54;;;19.58;64.31
65784;BME280;52532;53.358;-1.488;2022-09-09T06:53:53;99483.60;;;19.58;63.17
65784;BME280;52532;53.358;-1.488;2022-09-09T06:56:57;99488.71;;;19.04;63.50
65784;BME280;52532;53.358;-1.488;2022-09-09T07:00:00;99493.45;;;20.03;60.85
65784;BME280;52532;53.358;-1.488;2022-09-09T07:03:03;99495.23;;;18.88;62.55
65784;BME280;52532;53.358;-1.488;2022-09-09T07:06:08;99498.54;;;19.81;60.60
65784;BME280;52532;53.358;-1.488;2022-09-09T07:09:13;99499.74;;;20.52;61.23
65784;BME280;52532;53.358;-1.488;2022-09-09T07:12:16;99502.27;;;20.03;62.35
65784;BME280;52532;53.358;-1.488;2022-09-09T07:15:19;99506.52;;;17.13;67.44
65784;BME280;52532;53.358;-1.488;2022-09-09T07:18:23;99509.20;;;17.02;70.07
65784;BME280;52532;53.358;-1.488;2022-09-09T07:21:28;99508.23;;;19.22;64.30
65784;BME280;52532;53.358;-1.488;2022-09-09T07:24:31;99513.20;;;18.76;64.71
65784;BME280;52532;53.358;-1.488;2022-09-09T07:27:34;99513.20;;;20.32;62.05
65784;BME280;52532;53.358;-1.488;2022-09-09T07:30:38;99516.80;;;18.32;65.76
65784;BME280;52532;53.358;-1.488;2022-09-09T07:33:43;99514.35;;;21.04;60.28
65784;BME280;52532;53.358;-1.488;2022-09-09T07:36:46;99512.53;;;19.94;62.15
65784;BME280;52532;53.358;-1.488;2022-09-09T07:39:50;99522.44;;;18.76;64.90
65784;BME280;52532;53.358;-1.488;2022-09-09T07:42:53;99521.43;;;19.78;63.01
65784;BME280;52532;53.358;-1.488;2022-09-09T07:45:57;99523.51;;;17.30;66.82
65784;BME280;52532;53.358;-1.488;2022-09-09T07:49:01;99528.91;;;18.01;65.98
65784;BME280;52532;53.358;-1.488;2022-09-09T07:52:05;99532.60;;;18.52;66.59
65784;BME280;52532;53.358;-1.488;2022-09-09T07:55:20;99533.39;;;20.18;62.46
65784;BME280;52532;53.358;-1.488;2022-09-09T07:58:27;99542.68;;;19.31;62.94
65784;BME280;52532;53.358;-1.488;2022-09-09T08:01:32;99544.99;;;19.39;62.31
65784;BME280;52532;53.358;-1.488;2022-09-09T08:04:36;99547.25;;;20.61;60.32
65784;BME280;52532;53.358;-1.488;2022-09-09T08:07:39;99549.05;;;21.00;59.39
65784;BME280;52532;53.358;-1.488;2022-09-09T08:10:42;99549.02;;;21.10;58.25
65784;BME280;52532;53.358;-1.488;2022-09-09T08:13:45;99550.58;;;20.16;60.16
65784;BME280;52532;53.358;-1.488;2022-09-09T08:16:50;99548.87;;;19.96;61.16
65784;BME280;52532;53.358;-1.488;2022-09-09T08:19:55;99552.44;;;20.00;61.14
65784;BME280;52532;53.358;-1.488;2022-09-09T08:22:58;99555.19;;;20.79;60.67
65784;BME280;52532;53.358;-1.488;2022-09-09T08:26:11;99557.22;;;20.48;60.88
65784;BME280;52532;53.358;-1.488;2022-09-09T08:29:15;99559.91;;;20.59;60.66
65784;BME280;52532;53.358;-1.488;2022-09-09T08:32:19;99565.86;;;21.48;58.91
65784;BME280;52532;53.358;-1.488;2022-09-09T08:35:22;99570.75;;;20.52;60.39
65784;BME280;52532;53.358;-1.488;2022-09-09T08:38:25;99567.94;;;20.17;59.47
65784;BME280;52532;53.358;-1.488;2022-09-09T08:41:39;99576.21;;;19.43;63.87
65784;BME280;52532;53.358;-1.488;2022-09-09T08:44:57;99579.41;;;20.44;62.13
65784;BME280;52532;53.358;-1.488;2022-09-09T08:48:13;99584.96;;;20.47;62.63
65784;BME280;52532;53.358;-1.488;2022-09-09T08:51:18;99591.31;;;19.49;62.69
65784;BME280;52532;53.358;-1.488;2022-09-09T08:54:22;99587.61;;;19.93;61.50
65784;BME280;52532;53.358;-1.488;2022-09-09T08:57:28;99596.32;;;17.72;68.45
65784;BME280;52532;53.358;-1.488;2022-09-09T09:00:38;99598.86;;;18.67;65.75
65784;BME280;52532;53.358;-1.488;2022-09-09T09:03:50;99604.11;;;19.94;64.11
65784;BME280;52532;53.358;-1.488;2022-09-09T09:07:08;99603.85;;;20.14;62.24
65784;BME280;52532;53.358;-1.488;2022-09-09T09:10:24;99607.55;;;18.53;65.44
65784;BME280;52532;53.358;-1.488;2022-09-09T09:13:38;99616.29;;;19.00;63.88
65784;BME280;52532;53.358;-1.488;2022-09-09T09:16:48;99618.59;;;17.63;65.96
65784;BME280;52532;53.358;-1.488;2022-09-09T09:19:53;99622.62;;;18.89;63.32
65784;BME280;52532;53.358;-1.488;2022-09-09T09:22:59;99623.98;;;19.44;60.67
65784;BME280;52532;53.358;-1.488;2022-09-09T09:26:07;99620.02;;;19.38;61.89
65784;BME280;52532;53.358;-1.488;2022-09-09T09:29:13;99621.04;;;19.66;60.34
65784;BME280;52532;53.358;-1.488;2022-09-09T09:32:19;99620.84;;;20.46;57.53
65784;BME280;52532;53.358;-1.488;2022-09-09T09:35:23;99627.18;;;19.85;60.11
65784;BME280;52532;53.358;-1.488;2022-09-09T09:38:28;99624.76;;;20.38;57.46
65784;BME280;52532;53.358;-1.488;2022-09-09T09:41:33;99629.17;;;18.52;62.20
65784;BME280;52532;53.358;-1.488;2022-09-09T09:44:37;99632.64;;;17.98;63.85
65784;BME280;52532;53.358;-1.488;2022-09-09T09:47:43;99634.49;;;18.99;63.08
65784;BME280;52532;53.358;-1.488;2022-09-09T09:50:51;99640.98;;;19.03;62.41
65784;BME280;52532;53.358;-1.488;2022-09-09T09:54:07;99643.00;;;19.73;59.85
65784;BME280;52532;53.358;-1.488;2022-09-09T09:57:14;99643.31;;;20.11;59.01
65784;BME280;52532;53.358;-1.488;2022-09-09T10:00:20;99644.24;;;20.87;57.27
65784;BME280;52532;53.358;-1.488;2022-09-09T10:03:27;99649.95;;;19.15;58.08
65784;BME280;52532;53.358;-1.488;2022-09-09T10:06:32;99648.90;;;21.04;56.88
65784;BME280;52532;53.358;-1.488;2022-09-09T10:09:35;99650.08;;;20.43;56.88
65784;BME280;52532;53.358;-1.488;2022-09-09T10:12:53;99651.35;;;20.34;57.68
65784;BME280;52532;53.358;-1.488;2022-09-09T10:16:09;99656.49;;;20.08;58.49
65784;BME280;52532;53.358;-1.488;2022-09-09T10:19:20;99648.17;;;20.71;55.56
65784;BME280;52532;53.358;-1.488;2022-09-09T10:22:26;99657.05;;;19.90;59.08
65784;BME280;52532;53.358;-1.488;2022-09-09T10:25:38;99651.82;;;20.62;57.61
65784;BME280;52532;53.358;-1.488;2022-09-09T10:28:56;99654.20;;;21.63;54.68
65784;BME280;52532;53.358;-1.488;2022-09-09T10:32:16;99653.22;;;20.74;55.74
65784;BME280;52532;53.358;-1.488;2022-09-09T10:35:30;99650.85;;;20.09;56.73
65784;BME280;52532;53.358;-1.488;2022-09-09T10:38:40;99655.49;;;18.27;59.34
65784;BME280;52532;53.358;-1.488;2022-09-09T10:41:51;99648.86;;;20.15;56.66
65784;BME280;52532;53.358;-1.488;2022-09-09T10:45:09;99648.17;;;20.42;56.70
65784;BME280;52532;53.358;-1.488;2022-09-09T10:48:30;99650.31;;;20.46;58.30
65784;BME280;52532;53.358;-1.488;2022-09-09T10:51:40;99651.34;;;20.26;59.54
65784;BME280;52532;53.358;-1.488;2022-09-09T10:54:55;99652.43;;;19.67;63.82
65784;BME280;52532;53.358;-1.488;2022-09-09T10:58:04;99653.68;;;19.30;61.86
65784;BME280;52532;53.358;-1.488;2022-09-09T11:01:15;99654.12;;;20.05;59.52
65784;BME280;52532;53.358;-1.488;2022-09-09T11:04:23;99658.05;;;20.44;56.73
65784;BME280;52532;53.358;-1.488;2022-09-09T11:07:34;99655.72;;;19.55;58.39
65784;BME280;52532;53.358;-1.488;2022-09-09T11:10:42;99646.87;;;20.89;54.97
65784;BME280;52532;53.358;-1.488;2022-09-09T11:13:53;99647.74;;;20.86;54.23
65784;BME280;52532;53.358;-1.488;2022-09-09T11:16:59;99650.97;;;21.10;53.77
65784;BME280;52532;53.358;-1.488;2022-09-09T11:20:05;99649.48;;;20.90;53.61
65784;BME280;52532;53.358;-1.488;2022-09-09T11:23:12;99647.57;;;21.84;51.50
65784;BME280;52532;53.358;-1.488;2022-09-09T11:26:24;99644.10;;;19.47;56.86
65784;BME280;52532;53.358;-1.488;2022-09-09T11:29:43;99649.66;;;21.92;53.28
65784;BME280;52532;53.358;-1.488;2022-09-09T11:33:04;99653.82;;;20.67;53.59
65784;BME280;52532;53.358;-1.488;2022-09-09T11:36:29;99652.51;;;22.59;50.32
65784;BME280;52532;53.358;-1.488;2022-09-09T11:40:39;99652.89;;;20.77;52.98
65784;BME280;52532;53.358;-1.488;2022-09-09T11:43:44;99652.37;;;21.48;51.10
65784;BME280;52532;53.358;-1.488;2022-09-09T11:46:50;99659.00;;;22.83;49.45
65784;BME280;52532;53.358;-1.488;2022-09-09T11:49:54;99668.46;;;20.39;54.76
65784;BME280;52532;53.358;-1.488;2022-09-09T11:53:18;99667.55;;;21.36;54.09
65784;BME280;52532;53.358;-1.488;2022-09-09T11:56:28;99673.44;;;21.43;55.28
65784;BME280;52532;53.358;-1.488;2022-09-09T11:59:33;99679.27;;;23.36;50.05
65784;BME280;52532;53.358;-1.488;2022-09-09T12:02:36;99682.07;;;22.51;52.08
65784;BME280;52532;53.358;-1.488;2022-09-09T12:05:41;99685.73;;;23.51;51.05
65784;BME280;52532;53.358;-1.488;2022-09-09T12:08:47;99685.13;;;21.78;52.85
65784;BME280;52532;53.358;-1.488;2022-09-09T12:11:52;99687.06;;;21.94;54.32
65784;BME280;52532;53.358;-1.488;2022-09-09T12:14:58;99685.09;;;21.96;53.95
65784;BME280;52532;53.358;-1.488;2022-09-09T12:18:02;99677.56;;;21.96;58.12
65784;BME280;52532;53.358;-1.488;2022-09-09T12:21:18;99679.24;;;22.54;53.15
65784;BME280;52532;53.358;-1.488;2022-09-09T12:24:29;99680.03;;;21.97;56.22
65784;BME280;52532;53.358;-1.488;2022-09-09T12:27:41;99680.73;;;21.20;56.07
65784;BME280;52532;53.358;-1.488;2022-09-09T12:30:53;99681.37;;;22.22;54.64
65784;BME280;52532;53.358;-1.488;2022-09-09T12:34:09;99672.93;;;22.36;55.63
65784;BME280;52532;53.358;-1.488;2022-09-09T12:37:17;99681.06;;;22.67;54.57
65784;BME280;52532;53.358;-1.488;2022-09-09T12:40:25;99689.68;;;20.10;60.70
65784;BME280;52532;53.358;-1.488;2022-09-09T12:43:29;99701.57;;;18.82;70.39
65784;BME280;52532;53.358;-1.488;2022-09-09T12:46:36;99707.44;;;20.04;66.74
65784;BME280;52532;53.358;-1.488;2022-09-09T12:49:41;99714.72;;;19.10;69.33
65784;BME280;52532;53.358;-1.488;2022-09-09T12:52:46;99716.73;;;20.23;64.70
65784;BME280;52532;53.358;-1.488;2022-09-09T12:55:52;99711.75;;;21.12;62.49
65784;BME280;52532;53.358;-1.488;2022-09-09T12:58:57;99718.51;;;22.34;59.00
65784;BME280;52532;53.358;-1.488;2022-09-09T13:02:01;99722.56;;;22.17;61.61
65784;BME280;52532;53.358;-1.488;2022-09-09T13:05:16;99732.26;;;21.21;62.96
65784;BME280;52532;53.358;-1.488;2022-09-09T13:08:24;99730.75;;;20.20;64.02
65784;BME280;52532;53.358;-1.488;2022-09-09T13:11:31;99741.61;;;20.78;65.87
65784;BME280;52532;53.358;-1.488;2022-09-09T13:14:37;99757.63;;;18.84;68.17
65784;BME280;52532;53.358;-1.488;2022-09-09T13:17:40;99758.59;;;19.41;63.78
65784;BME280;52532;53.358;-1.488;2022-09-09T13:20:47;99750.52;;;18.42;65.02
65784;BME280;52532;53.358;-1.488;2022-09-09T13:23:51;99750.34;;;19.21;62.44
65784;BME280;52532;53.358;-1.488;2022-09-09T13:26:55;99750.28;;;18.76;61.00
65784;BME280;52532;53.358;-1.488;2022-09-09T13:29:59;99758.26;;;19.43;60.53
65784;BME280;52532;53.358;-1.488;2022-09-09T13:33:06;99757.14;;;19.92;57.77
65784;BME280;52532;53.358;-1.488;2022-09-09T13:36:10;99755.43;;;19.15;57.77
65784;BME280;52532;53.358;-1.488;2022-09-09T13:39:16;99751.96;;;20.37;58.90
65784;BME280;52532;53.358;-1.488;2022-09-09T13:42:25;99759.13;;;19.20;61.62
65784;BME280;52532;53.358;-1.488;2022-09-09T13:45:30;99758.22;;;18.76;62.93
65784;BME280;52532;53.358;-1.488;2022-09-09T13:48:37;99757.21;;;19.48;62.94
65784;BME280;52532;53.358;-1.488;2022-09-09T13:51:44;99755.56;;;19.20;63.20
65784;BME280;52532;53.358;-1.488;2022-09-09T13:54:50;99758.60;;;21.44;60.13
65784;BME280;52532;53.358;-1.488;2022-09-09T13:57:55;99764.99;;;18.59;66.78
65784;BME280;52532;53.358;-1.488;2022-09-09T14:00:58;99768.67;;;19.18;64.24
65784;BME280;52532;53.358;-1.488;2022-09-09T14:04:02;99755.34;;;18.19;69.03
65784;BME280;52532;53.358;-1.488;2022-09-09T14:07:05;99749.29;;;19.09;66.67
65784;BME280;52532;53.358;-1.488;2022-09-09T14:10:09;99754.79;;;19.13;66.50
65784;BME280;52532;53.358;-1.488;2022-09-09T14:13:12;99762.46;;;21.08;60.17
65784;BME280;52532;53.358;-1.488;2022-09-09T14:16:14;99771.20;;;19.25;63.56
65784;BME280;52532;53.358;-1.488;2022-09-09T14:19:17;99770.66;;;18.73;64.24
65784;BME280;52532;53.358;-1.488;2022-09-09T14:22:20;99773.70;;;19.40;64.72
65784;BME280;52532;53.358;-1.488;2022-09-09T14:25:23;99783.07;;;22.08;58.62
65784;BME280;52532;53.358;-1.488;2022-09-09T14:28:26;99794.07;;;23.57;55.36
65784;BME280;52532;53.358;-1.488;2022-09-09T14:31:30;99797.97;;;20.79;59.74
65784;BME280;52532;53.358;-1.488;2022-09-09T14:34:34;99795.98;;;20.46;60.09
65784;BME280;52532;53.358;-1.488;2022-09-09T14:37:38;99799.31;;;20.53;59.44
65784;BME280;52532;53.358;-1.488;2022-09-09T14:40:45;99796.73;;;20.51;59.94
65784;BME280;52532;53.358;-1.488;2022-09-09T14:43:49;99795.54;;;18.88;63.13
65784;BME280;52532;53.358;-1.488;2022-09-09T14:46:52;99800.87;;;20.83;59.74
65784;BME280;52532;53.358;-1.488;2022-09-09T14:49:56;99799.86;;;21.15;59.16
65784;BME280;52532;53.358;-1.488;2022-09-09T14:52:59;99799.48;;;18.68;65.38
65784;BME280;52532;53.358;-1.488;2022-09-09T14:56:05;99797.13;;;21.17;58.17
65784;BME280;52532;53.358;-1.488;2022-09-09T14:59:08;99791.48;;;18.67;63.34
65784;BME280;52532;53.358;-1.488;2022-09-09T15:02:11;99793.63;;;17.29;70.05
65784;BME280;52532;53.358;-1.488;2022-09-09T15:05:16;99796.51;;;19.14;64.21
65784;BME280;52532;53.358;-1.488;2022-09-09T15:08:19;99793.43;;;18.80;67.70
65784;BME280;52532;53.358;-1.488;2022-09-09T15:11:29;99793.19;;;16.71;73.56
65784;BME280;52532;53.358;-1.488;2022-09-09T15:14:33;99785.66;;;19.01;68.09
65784;BME280;52532;53.358;-1.488;2022-09-09T15:17:37;99789.32;;;17.34;68.39
65784;BME280;52532;53.358;-1.488;2022-09-09T15:20:44;99784.96;;;17.43;70.03
65784;BME280;52532;53.358;-1.488;2022-09-09T15:23:50;99788.23;;;17.55;74.28
65784;BME280;52532;53.358;-1.488;2022-09-09T15:26:53;99792.33;;;19.79;67.84
65784;BME280;52532;53.358;-1.488;2022-09-09T15:29:56;99791.05;;;20.62;63.18
65784;BME280;52532;53.358;-1.488;2022-09-09T15:33:00;99795.32;;;20.13;59.04
65784;BME280;52532;53.358;-1.488;2022-09-09T15:36:14;99796.74;;;20.98;55.60
65784;BME280;52532;53.358;-1.488;2022-09-09T15:39:18;99811.33;;;20.39;58.29
65784;BME280;52532;53.358;-1.488;2022-09-09T15:42:22;99818.47;;;20.13;59.44
65784;BME280;52532;53.358;-1.488;2022-09-09T15:45:28;99821.22;;;22.70;53.71
65784;BME280;52532;53.358;-1.488;2022-09-09T15:48:34;99826.46;;;23.00;52.02
65784;BME280;52532;53.358;-1.488;2022-09-09T15:51:38;99825.14;;;21.90;54.41
65784;BME280;52532;53.358;-1.488;2022-09-09T15:54:42;99829.57;;;23.89;51.10
65784;BME280;52532;53.358;-1.488;2022-09-09T15:57:47;99832.18;;;21.79;54.20
65784;BME280;52532;53.358;-1.488;2022-09-09T16:00:50;99836.05;;;21.06;57.46
65784;BME280;52532;53.358;-1.488;2022-09-09T16:03:54;99841.36;;;19.48;61.85
65784;BME280;52532;53.358;-1.488;2022-09-09T16:06:58;99847.67;;;20.39;57.80
65784;BME280;52532;53.358;-1.488;2022-09-09T16:10:05;99845.10;;;19.39;57.75
65784;BME280;52532;53.358;-1.488;2022-09-09T16:13:13;99841.81;;;20.44;57.79
65784;BME280;52532;53.358;-1.488;2022-09-09T16:16:24;99832.75;;;19.59;58.22